createdAt,value
2022-08-26T00:00:54.599Z,98669.91
2022-08-26T00:03:24.345Z,98663.59
2022-08-26T00:05:53.120Z,98663.00
2022-08-26T00:08:22.378Z,98658.50
2022-08-26T00:10:51.178Z,98663.38
2022-08-26T00:13:21.370Z,98657.94
2022-08-26T00:15:51.215Z,98655.06
2022-08-26T00:18:22.387Z,98656.13
2022-08-26T00:20:51.792Z,98662.25
2022-08-26T00:23:20.722Z,98669.13
2022-08-26T00:25:53.608Z,98659.44
2022-08-26T00:28:24.074Z,98671.94
2022-08-26T00:30:53.125Z,98675.66
2022-08-26T00:33:22.143Z,98675.66
2022-08-26T00:35:51.798Z,98667.41
2022-08-26T00:38:22.960Z,98678.94
2022-08-26T00:40:53.985Z,98663.84
2022-08-26T00:43:26.426Z,98663.28
2022-08-26T00:45:58.968Z,98660.84
2022-08-26T00:48:30.740Z,98673.94
2022-08-26T00:51:02.604Z,98670.47
2022-08-26T00:53:35.964Z,98664.66
2022-08-26T00:56:09.222Z,98670.31
2022-08-26T00:58:45.415Z,98663.50
2022-08-26T01:01:14.456Z,98669.31
2022-08-26T01:03:44.966Z,98670.88
2022-08-26T01:06:14.878Z,98672.09
2022-08-26T01:08:43.835Z,98666.53
2022-08-26T01:11:12.875Z,98676.84
2022-08-26T01:13:43.477Z,98676.09
2022-08-26T01:16:16.220Z,98685.22
2022-08-26T01:18:46.746Z,98683.91
2022-08-26T01:21:21.177Z,98685.22
2022-08-26T01:23:57.536Z,98677.03
2022-08-26T01:26:29.662Z,98681.22
2022-08-26T01:29:00.299Z,98680.69
2022-08-26T01:31:34.101Z,98669.41
2022-08-26T01:34:06.684Z,98678.13
2022-08-26T01:36:38.671Z,98668.69
2022-08-26T01:39:09.721Z,98669.19
2022-08-26T01:41:40.552Z,98664.38
2022-08-26T01:44:21.119Z,98672.34
2022-08-26T01:46:51.933Z,98667.94
2022-08-26T01:49:22.077Z,98674.63
2022-08-26T01:51:51.988Z,98673.84
2022-08-26T01:54:23.159Z,98678.94
2022-08-26T01:56:52.578Z,98683.59
2022-08-26T01:59:21.975Z,98682.06
2022-08-26T02:01:51.136Z,98671.75
2022-08-26T02:04:24.739Z,98679.34
2022-08-26T02:06:53.819Z,98681.00
2022-08-26T02:09:24.974Z,98682.56
2022-08-26T02:11:54.256Z,98680.28
2022-08-26T02:14:26.903Z,98680.78
2022-08-26T02:16:56.775Z,98682.13
2022-08-26T02:19:28.922Z,98680.78
2022-08-26T02:22:01.411Z,98682.50
2022-08-26T02:24:47.234Z,98686.63
2022-08-26T02:27:16.485Z,98689.91
2022-08-26T02:29:48.182Z,98687.25
2022-08-26T02:32:19.003Z,98689.13
2022-08-26T02:34:48.149Z,98690.66
2022-08-26T02:37:17.726Z,98682.53
2022-08-26T02:39:47.992Z,98673.00
2022-08-26T02:42:16.874Z,98679.09
2022-08-26T02:44:45.684Z,98679.38
2022-08-26T02:47:15.397Z,98675.03
2022-08-26T02:49:44.969Z,98670.34
2022-08-26T02:52:16.216Z,98674.06
2022-08-26T02:54:45.035Z,98675.09
2022-08-26T02:57:15.847Z,98671.19
2022-08-26T02:59:45.143Z,98678.94
2022-08-26T03:02:14.443Z,98666.84
2022-08-26T03:04:57.937Z,98677.25
2022-08-26T03:07:30.880Z,98676.66
2022-08-26T03:09:59.838Z,98674.19
2022-08-26T03:12:29.999Z,98671.53
2022-08-26T03:14:58.753Z,98670.78
2022-08-26T03:17:27.631Z,98670.31
2022-08-26T03:19:57.210Z,98666.66
2022-08-26T03:22:27.131Z,98664.78
2022-08-26T03:24:55.941Z,98666.34
2022-08-26T03:27:24.645Z,98665.31
2022-08-26T03:30:12.191Z,98663.72
2022-08-26T03:32:41.486Z,98667.41
2022-08-26T03:35:10.598Z,98669.81
2022-08-26T03:37:39.976Z,98663.25
2022-08-26T03:40:11.110Z,98668.25
2022-08-26T03:42:41.254Z,98677.03
2022-08-26T03:45:16.837Z,98673.44
2022-08-26T03:47:46.544Z,98672.38
2022-08-26T03:50:22.934Z,98668.91
2022-08-26T03:52:54.809Z,98678.78
2022-08-26T03:55:25.747Z,98672.44
2022-08-26T03:57:56.123Z,98678.31
2022-08-26T04:00:26.582Z,98683.56
2022-08-26T04:02:55.388Z,98683.03
2022-08-26T04:05:24.790Z,98677.75
2022-08-26T04:07:54.437Z,98675.38
2022-08-26T04:10:28.675Z,98682.50
2022-08-26T04:12:59.703Z,98675.91
2022-08-26T04:15:30.072Z,98676.50
2022-08-26T04:17:58.766Z,98677.28
2022-08-26T04:20:28.474Z,98682.59
2022-08-26T04:22:57.678Z,98685.28
2022-08-26T04:25:26.392Z,98678.13
2022-08-26T04:27:55.429Z,98680.00
2022-08-26T04:30:24.257Z,98672.53
2022-08-26T04:32:58.258Z,98671.50
2022-08-26T04:35:27.039Z,98672.81
2022-08-26T04:37:56.051Z,98670.72
2022-08-26T04:40:27.564Z,98671.81
2022-08-26T04:42:56.785Z,98672.38
2022-08-26T04:45:26.443Z,98665.22
2022-08-26T04:47:57.358Z,98668.41
2022-08-26T04:50:26.934Z,98668.41
2022-08-26T04:52:56.363Z,98675.09
2022-08-26T04:55:38.122Z,98674.81
2022-08-26T04:58:10.116Z,98667.91
2022-08-26T05:00:39.941Z,98677.75
2022-08-26T05:03:10.846Z,98676.91
2022-08-26T05:05:41.447Z,98681.16
2022-08-26T05:08:11.181Z,98683.47
2022-08-26T05:10:42.473Z,98680.56
2022-08-26T05:13:15.372Z,98686.19
2022-08-26T05:15:45.364Z,98685.38
2022-08-26T05:18:16.713Z,98686.97
2022-08-26T05:20:48.832Z,98691.72
2022-08-26T05:23:18.274Z,98689.88
2022-08-26T05:25:48.586Z,98684.03
2022-08-26T05:28:19.341Z,98695.94
2022-08-26T05:30:49.068Z,98692.41
2022-08-26T05:33:20.098Z,98694.56
2022-08-26T05:35:49.185Z,98694.50
2022-08-26T05:38:22.404Z,98691.63
2022-08-26T05:40:53.115Z,98695.59
2022-08-26T05:43:22.142Z,98697.66
2022-08-26T05:45:51.870Z,98693.66
2022-08-26T05:48:22.523Z,98697.06
2022-08-26T05:50:53.894Z,98694.44
2022-08-26T05:53:23.972Z,98702.09
2022-08-26T05:55:55.439Z,98703.44
2022-08-26T05:58:24.986Z,98706.63
2022-08-26T06:01:01.393Z,98705.53
2022-08-26T06:03:34.463Z,98710.00
2022-08-26T06:06:05.714Z,98711.59
2022-08-26T06:08:36.205Z,98711.06
2022-08-26T06:11:07.283Z,98718.97
2022-08-26T06:13:37.000Z,98718.69
2022-08-26T06:16:08.994Z,98709.38
2022-08-26T06:18:41.671Z,98716.75
2022-08-26T06:21:16.018Z,98721.78
2022-08-26T06:24:04.453Z,98711.69
2022-08-26T06:26:34.329Z,98714.81
2022-08-26T06:29:06.927Z,98713.97
2022-08-26T06:31:38.174Z,98713.41
2022-08-26T06:34:11.071Z,98711.84
2022-08-26T06:36:43.840Z,98712.56
2022-08-26T06:39:15.302Z,98721.53
2022-08-26T06:41:44.997Z,98713.78
2022-08-26T06:44:16.337Z,98720.59
2022-08-26T06:46:45.733Z,98720.28
2022-08-26T06:49:17.362Z,98719.69
2022-08-26T06:51:46.186Z,98716.97
2022-08-26T06:54:18.235Z,98718.75
2022-08-26T06:56:47.900Z,98718.03
2022-08-26T06:59:17.178Z,98714.47
2022-08-26T07:01:46.929Z,98722.13
2022-08-26T07:04:22.045Z,98718.31
2022-08-26T07:06:53.750Z,98720.41
2022-08-26T07:09:25.349Z,98725.91
2022-08-26T07:11:56.299Z,98723.75
2022-08-26T07:14:26.170Z,98725.78
2022-08-26T07:16:55.573Z,98723.28
2022-08-26T07:19:30.146Z,98719.16
2022-08-26T07:22:05.554Z,98719.09
2022-08-26T07:24:35.922Z,98722.94
2022-08-26T07:27:08.776Z,98725.22
2022-08-26T07:29:38.924Z,98716.56
2022-08-26T07:32:08.431Z,98729.25
2022-08-26T07:34:39.753Z,98717.50
2022-08-26T07:37:10.706Z,98725.69
2022-08-26T07:39:41.791Z,98721.47
2022-08-26T07:42:14.322Z,98727.34
2022-08-26T07:44:44.756Z,98723.09
2022-08-26T07:47:25.004Z,98722.41
2022-08-26T07:49:57.736Z,98725.69
2022-08-26T07:52:28.189Z,98734.63
2022-08-26T07:54:58.115Z,98728.47
2022-08-26T07:57:27.516Z,98718.44
2022-08-26T07:59:56.795Z,98719.91
2022-08-26T08:02:26.853Z,98714.72
2022-08-26T08:04:57.882Z,98713.53
2022-08-26T08:07:44.350Z,98723.09
2022-08-26T08:10:15.411Z,98713.56
2022-08-26T08:12:44.642Z,98716.13
2022-08-26T08:15:13.907Z,98717.53
2022-08-26T08:17:45.954Z,98714.84
2022-08-26T08:20:16.095Z,98720.06
2022-08-26T08:22:44.929Z,98715.34
2022-08-26T08:25:16.052Z,98709.06
2022-08-26T08:27:46.163Z,98710.78
2022-08-26T08:30:20.817Z,98705.94
2022-08-26T08:32:51.526Z,98709.59
2022-08-26T08:35:22.716Z,98709.28
2022-08-26T08:37:54.392Z,98697.19
2022-08-26T08:40:25.806Z,98695.56
2022-08-26T08:42:59.146Z,98696.22
2022-08-26T08:45:35.883Z,98699.69
2022-08-26T08:48:08.407Z,98696.84
2022-08-26T08:50:45.727Z,98690.69
2022-08-26T08:53:18.117Z,98687.69
2022-08-26T08:56:00.450Z,98685.16
2022-08-26T08:58:40.602Z,98687.63
2022-08-26T09:01:13.304Z,98685.09
2022-08-26T09:03:48.576Z,98678.88
2022-08-26T09:06:19.133Z,98678.09
2022-08-26T09:08:50.485Z,98678.56
2022-08-26T09:11:20.461Z,98671.09
2022-08-26T09:13:52.515Z,98676.59
2022-08-26T09:16:25.900Z,98667.59
2022-08-26T09:19:04.928Z,98675.84
2022-08-26T09:21:35.443Z,98672.41
2022-08-26T09:24:04.745Z,98666.41
2022-08-26T09:26:45.224Z,98666.03
2022-08-26T09:31:51.406Z,98667.38
2022-08-26T09:34:22.160Z,98659.44
2022-08-26T09:36:54.469Z,98655.19
2022-08-26T09:39:33.991Z,98647.53
2022-08-26T09:42:11.896Z,98645.00
2022-08-26T09:45:03.725Z,98643.50
2022-08-26T09:47:35.791Z,98641.03
2022-08-26T09:50:14.052Z,98634.75
2022-08-26T09:52:44.558Z,98624.88
2022-08-26T09:55:16.713Z,98620.00
2022-08-26T09:57:47.468Z,98611.44
2022-08-26T10:00:32.087Z,98608.63
2022-08-26T10:03:03.586Z,98599.31
2022-08-26T10:05:56.038Z,98594.50
2022-08-26T10:08:31.376Z,98589.03
2022-08-26T10:11:02.122Z,98595.81
2022-08-26T10:13:35.402Z,98587.88
2022-08-26T10:16:10.716Z,98587.09
2022-08-26T10:18:42.227Z,98588.47
2022-08-26T10:21:17.817Z,98583.94
2022-08-26T10:23:50.252Z,98574.53
2022-08-26T10:26:24.345Z,98570.69
2022-08-26T10:28:56.900Z,98573.19
2022-08-26T10:31:30.339Z,98575.16
2022-08-26T10:34:07.368Z,98570.34
2022-08-26T10:37:15.828Z,98561.44
2022-08-26T10:39:49.170Z,98566.63
2022-08-26T10:42:24.572Z,98564.97
2022-08-26T10:44:58.474Z,98560.44
2022-08-26T10:47:33.755Z,98553.66
2022-08-26T10:50:04.600Z,98551.22
2022-08-26T10:52:45.685Z,98548.16
2022-08-26T10:55:19.882Z,98543.78
2022-08-26T10:57:56.325Z,98545.03
2022-08-26T11:00:48.627Z,98541.66
2022-08-26T11:03:29.048Z,98526.84
2022-08-26T11:06:16.883Z,98518.03
2022-08-26T11:08:50.095Z,98516.09
2022-08-26T11:11:51.091Z,98514.53
2022-08-26T11:14:41.071Z,98505.06
2022-08-26T11:17:57.108Z,98508.38
2022-08-26T11:20:35.505Z,98509.69
2022-08-26T11:23:38.197Z,98514.94
2022-08-26T11:26:35.476Z,98522.16
2022-08-26T11:29:12.266Z,98514.06
2022-08-26T11:31:56.953Z,98512.75
2022-08-26T11:34:55.207Z,98515.00
2022-08-26T11:37:33.200Z,98521.38
2022-08-26T11:40:04.220Z,98521.19
2022-08-26T11:42:42.965Z,98522.97
2022-08-26T11:45:20.050Z,98525.19
2022-08-26T11:47:49.615Z,98508.56
2022-08-26T11:50:21.186Z,98514.09
2022-08-26T11:52:55.701Z,98514.69
2022-08-26T11:55:24.734Z,98522.84
2022-08-26T11:57:55.914Z,98522.31
2022-08-26T12:00:33.468Z,98514.75
2022-08-26T12:03:08.046Z,98523.75
2022-08-26T12:05:43.068Z,98521.22
2022-08-26T12:08:15.731Z,98523.63
2022-08-26T12:10:44.793Z,98515.06
2022-08-26T12:13:22.082Z,98516.94
2022-08-26T12:15:56.679Z,98509.09
2022-08-26T12:18:29.639Z,98513.16
2022-08-26T12:21:05.401Z,98513.59
2022-08-26T12:23:43.249Z,98515.16
2022-08-26T12:26:23.351Z,98513.69
2022-08-26T12:28:57.915Z,98517.47
2022-08-26T12:31:31.260Z,98501.56
2022-08-26T12:34:01.768Z,98501.63
2022-08-26T12:36:33.482Z,98498.88
2022-08-26T12:39:10.805Z,98491.41
2022-08-26T12:41:48.033Z,98485.06
2022-08-26T12:44:42.400Z,98481.78
2022-08-26T12:47:39.035Z,98481.13
2022-08-26T12:50:18.604Z,98475.59
2022-08-26T12:52:57.077Z,98480.75
2022-08-26T12:55:27.666Z,98477.09
2022-08-26T12:58:20.960Z,98469.13
2022-08-26T13:00:51.116Z,98471.94
2022-08-26T13:03:45.717Z,98463.31
2022-08-26T13:06:27.852Z,98466.53
2022-08-26T13:08:58.705Z,98464.84
2022-08-26T13:11:30.421Z,98456.72
2022-08-26T13:14:00.981Z,98458.44
2022-08-26T13:16:31.309Z,98441.66
2022-08-26T13:19:03.013Z,98446.06
2022-08-26T13:21:37.721Z,98439.63
2022-08-26T13:24:08.996Z,98433.41
2022-08-26T13:26:37.843Z,98426.03
2022-08-26T13:29:10.229Z,98421.72
2022-08-26T13:31:41.055Z,98417.53
2022-08-26T13:34:12.526Z,98423.06
2022-08-26T13:36:42.193Z,98419.28
2022-08-26T13:39:11.027Z,98417.28
2022-08-26T13:41:39.930Z,98422.31
2022-08-26T13:44:08.706Z,98426.09
2022-08-26T13:46:37.814Z,98418.66
2022-08-26T13:49:06.865Z,98412.22
2022-08-26T13:51:37.631Z,98414.56
2022-08-26T13:54:07.222Z,98424.66
2022-08-26T13:56:37.437Z,98422.72
2022-08-26T13:59:07.508Z,98436.78
2022-08-26T14:01:39.595Z,98428.75
2022-08-26T14:04:08.676Z,98423.13
2022-08-26T14:06:38.882Z,98413.69
2022-08-26T14:09:11.497Z,98422.00
2022-08-26T14:11:55.092Z,98414.94
2022-08-26T14:14:25.025Z,98415.91
2022-08-26T14:16:59.284Z,98413.47
2022-08-26T14:19:30.587Z,98404.38
2022-08-26T14:22:01.750Z,98399.19
2022-08-26T14:24:30.820Z,98416.22
2022-08-26T14:26:59.714Z,98421.09
2022-08-26T14:29:28.886Z,98418.56
2022-08-26T14:31:58.839Z,98420.72
2022-08-26T14:34:27.784Z,98419.41
2022-08-26T14:36:56.552Z,98416.53
2022-08-26T14:39:26.881Z,98430.59
2022-08-26T14:41:56.998Z,98433.28
2022-08-26T14:44:27.421Z,98442.22
2022-08-26T14:46:56.985Z,98433.19
2022-08-26T14:49:27.237Z,98437.88
2022-08-26T14:51:56.802Z,98436.03
2022-08-26T14:54:26.093Z,98423.25
2022-08-26T14:56:58.595Z,98406.06
2022-08-26T14:59:29.297Z,98419.25
2022-08-26T15:02:00.858Z,98417.47
2022-08-26T15:04:30.082Z,98412.09
2022-08-26T15:07:00.400Z,98406.06
2022-08-26T15:09:32.196Z,98413.13
2022-08-26T15:12:01.757Z,98422.22
2022-08-26T15:14:32.957Z,98424.72
2022-08-26T15:17:02.394Z,98420.03
2022-08-26T15:19:31.790Z,98426.31
2022-08-26T15:22:00.562Z,98438.88
2022-08-26T15:24:31.513Z,98433.19
2022-08-26T15:27:00.488Z,98446.44
2022-08-26T15:29:31.613Z,98444.75
2022-08-26T15:32:05.916Z,98447.75
2022-08-26T15:34:34.784Z,98441.16
2022-08-26T15:37:03.683Z,98450.22
2022-08-26T15:39:34.090Z,98441.72
2022-08-26T15:42:03.249Z,98439.91
2022-08-26T15:44:34.023Z,98437.31
2022-08-26T15:47:02.973Z,98433.72
2022-08-26T15:49:31.769Z,98433.25
2022-08-26T15:52:00.563Z,98418.72
2022-08-26T15:54:29.511Z,98403.28
2022-08-26T15:57:02.823Z,98420.28
2022-08-26T15:59:32.105Z,98416.22
2022-08-26T16:02:01.852Z,98433.66
2022-08-26T16:04:36.615Z,98432.28
2022-08-26T16:07:05.811Z,98440.13
2022-08-26T16:09:34.506Z,98467.59
2022-08-26T16:12:05.579Z,98464.41
2022-08-26T16:14:34.479Z,98495.91
2022-08-26T16:17:03.284Z,98484.06
2022-08-26T16:19:32.467Z,98516.88
2022-08-26T16:22:01.261Z,98515.34
2022-08-26T16:24:30.668Z,98524.69
2022-08-26T16:26:59.661Z,98537.00
2022-08-26T16:29:31.439Z,98525.38
2022-08-26T16:32:00.367Z,98537.00
2022-08-26T16:34:29.212Z,98528.69
2022-08-26T16:36:58.380Z,98551.66
2022-08-26T16:39:27.207Z,98557.47
2022-08-26T16:41:56.004Z,98557.59
2022-08-26T16:44:25.048Z,98552.13
2022-08-26T16:46:59.397Z,98555.53
2022-08-26T16:49:28.150Z,98566.44
2022-08-26T16:51:56.996Z,98571.44
2022-08-26T16:54:27.541Z,98576.59
2022-08-26T16:56:56.732Z,98562.38
2022-08-26T16:59:25.551Z,98548.75
2022-08-26T17:01:54.356Z,98536.97
2022-08-26T17:04:24.602Z,98554.41
2022-08-26T17:06:53.712Z,98555.97
2022-08-26T17:09:23.297Z,98537.03
2022-08-26T17:11:52.257Z,98541.38
2022-08-26T17:14:21.050Z,98538.41
2022-08-26T17:16:51.344Z,98530.28
2022-08-26T17:19:21.347Z,98548.66
2022-08-26T17:21:51.685Z,98547.63
2022-08-26T17:24:20.633Z,98554.38
2022-08-26T17:26:50.045Z,98550.50
2022-08-26T17:29:22.462Z,98547.59
2022-08-26T17:31:51.313Z,98553.47
2022-08-26T17:34:20.533Z,98539.59
2022-08-26T17:36:51.194Z,98548.66
2022-08-26T17:39:20.373Z,98555.34
2022-08-26T17:41:49.434Z,98555.66
2022-08-26T17:44:18.747Z,98549.34
2022-08-26T17:46:47.501Z,98556.94
2022-08-26T17:49:16.294Z,98550.72
2022-08-26T17:51:45.239Z,98557.72
2022-08-26T17:54:15.705Z,98554.06
2022-08-26T17:56:44.369Z,98552.56
2022-08-26T17:59:13.146Z,98554.81
2022-08-26T18:01:41.966Z,98544.47
2022-08-26T18:04:11.862Z,98559.72
2022-08-26T18:06:43.592Z,98559.09
2022-08-26T18:09:12.849Z,98557.78
2022-08-26T18:11:43.140Z,98560.94
2022-08-26T18:14:12.709Z,98566.47
2022-08-26T18:16:42.003Z,98576.59
2022-08-26T18:19:11.599Z,98575.03
2022-08-26T18:21:40.594Z,98590.03
2022-08-26T18:24:13.794Z,98593.25
2022-08-26T18:26:48.803Z,98597.78
2022-08-26T18:29:19.573Z,98615.53
2022-08-26T18:31:49.557Z,98622.78
2022-08-26T18:34:21.606Z,98634.47
2022-08-26T18:36:53.789Z,98671.97
2022-08-26T18:39:23.620Z,98710.69
2022-08-26T18:41:54.092Z,98724.75
2022-08-26T18:44:23.933Z,98727.25
2022-08-26T18:46:52.920Z,98726.81
2022-08-26T18:49:22.295Z,98740.38
2022-08-26T18:51:54.204Z,98736.41
2022-08-26T18:54:23.171Z,98733.03
2022-08-26T18:56:54.064Z,98728.78
2022-08-26T18:59:30.535Z,98717.53
2022-08-26T19:01:59.630Z,98705.59
2022-08-26T19:04:28.855Z,98702.38
2022-08-26T19:06:57.945Z,98694.94
2022-08-26T19:09:27.273Z,98699.44
2022-08-26T19:11:57.714Z,98700.00
2022-08-26T19:14:30.086Z,98689.66
2022-08-26T19:17:00.578Z,98688.94
2022-08-26T19:19:29.583Z,98693.13
2022-08-26T19:21:58.679Z,98690.75
2022-08-26T19:24:29.465Z,98694.25
2022-08-26T19:27:01.662Z,98693.91
2022-08-26T19:29:32.605Z,98699.22
2022-08-26T19:32:01.988Z,98699.56
2022-08-26T19:34:31.133Z,98704.59
2022-08-26T19:37:00.396Z,98701.94
2022-08-26T19:39:29.465Z,98697.72
2022-08-26T19:42:00.355Z,98703.03
2022-08-26T19:44:46.728Z,98715.00
2022-08-26T19:47:15.909Z,98706.81
2022-08-26T19:49:45.734Z,98716.41
2022-08-26T19:52:14.565Z,98712.41
2022-08-26T19:54:44.552Z,98710.59
2022-08-26T19:57:14.750Z,98719.13
2022-08-26T19:59:44.421Z,98705.34
2022-08-26T20:02:13.386Z,98720.50
2022-08-26T20:04:42.914Z,98718.69
2022-08-26T20:07:15.323Z,98722.84
2022-08-26T20:09:48.256Z,98719.47
2022-08-26T20:12:18.685Z,98713.88
2022-08-26T20:14:48.063Z,98717.59
2022-08-26T20:17:17.172Z,98713.88
2022-08-26T20:20:03.707Z,98712.56
2022-08-26T20:22:33.818Z,98721.25
2022-08-26T20:25:03.283Z,98722.41
2022-08-26T20:27:38.337Z,98714.47
2022-08-26T20:30:09.855Z,98718.16
2022-08-26T20:32:39.696Z,98714.47
2022-08-26T20:35:11.553Z,98718.47
2022-08-26T20:37:41.726Z,98712.97
2022-08-26T20:40:18.827Z,98709.84
2022-08-26T20:42:49.050Z,98718.88
2022-08-26T20:45:17.864Z,98720.69
2022-08-26T20:47:46.696Z,98708.78
2022-08-26T20:50:15.465Z,98713.06
2022-08-26T20:52:44.285Z,98711.75
2022-08-26T20:55:13.203Z,98710.22
2022-08-26T20:57:43.143Z,98710.47
2022-08-26T21:00:16.301Z,98712.56
2022-08-26T21:02:46.233Z,98720.81
2022-08-26T21:05:17.921Z,98716.00
2022-08-26T21:07:47.003Z,98726.44
2022-08-26T21:10:16.712Z,98734.16
2022-08-26T21:12:45.583Z,98725.91
2022-08-26T21:15:16.447Z,98733.63
2022-08-26T21:17:45.395Z,98729.59
2022-08-26T21:20:14.352Z,98728.25
2022-08-26T21:22:44.648Z,98729.56
2022-08-26T21:25:13.406Z,98731.69
2022-08-26T21:27:42.297Z,98739.16
2022-08-26T21:30:14.421Z,98732.03
2022-08-26T21:32:44.657Z,98728.63
2022-08-26T21:35:13.612Z,98736.28
2022-08-26T21:37:42.394Z,98730.75
2022-08-26T21:40:12.099Z,98737.16
2022-08-26T21:42:41.110Z,98728.94
2022-08-26T21:45:10.868Z,98730.84
2022-08-26T21:47:40.545Z,98737.19
2022-08-26T21:50:11.196Z,98738.84
2022-08-26T21:52:40.238Z,98742.56
2022-08-26T21:55:11.676Z,98753.19
2022-08-26T21:57:40.817Z,98753.47
2022-08-26T22:00:13.055Z,98747.13
2022-08-26T22:02:41.908Z,98746.84
2022-08-26T22:05:12.365Z,98742.56
2022-08-26T22:07:41.309Z,98738.31
2022-08-26T22:10:10.426Z,98744.69
2022-08-26T22:12:39.584Z,98738.84
2022-08-26T22:15:09.891Z,98733.31
2022-08-26T22:17:39.192Z,98749.22
2022-08-26T22:20:16.514Z,98743.91
2022-08-26T22:22:47.059Z,98746.59
2022-08-26T22:25:15.828Z,98741.34
2022-08-26T22:27:44.538Z,98742.41
2022-08-26T22:30:13.980Z,98745.06
2022-08-26T22:32:43.892Z,98753.78
2022-08-26T22:35:29.149Z,98755.66
2022-08-26T22:38:00.439Z,98753.50
2022-08-26T22:40:29.405Z,98746.38
2022-08-26T22:43:00.165Z,98758.28
2022-08-26T22:45:31.255Z,98765.22
2022-08-26T22:48:00.181Z,98774.19
2022-08-26T22:50:29.507Z,98776.03
2022-08-26T22:52:59.618Z,98776.03
2022-08-26T22:55:28.380Z,98775.25
2022-08-26T22:57:57.119Z,98785.03
2022-08-26T23:00:32.193Z,98778.66
2022-08-26T23:03:01.953Z,98781.31
2022-08-26T23:05:31.184Z,98793.53
2022-08-26T23:08:01.368Z,98789.28
2022-08-26T23:10:30.233Z,98788.16
2022-08-26T23:12:59.017Z,98786.06
2022-08-26T23:15:27.812Z,98778.13
2022-08-26T23:17:58.928Z,98778.13
2022-08-26T23:20:38.373Z,98771.56
2022-08-26T23:23:09.401Z,98764.81
2022-08-26T23:25:38.180Z,98766.94
2022-08-26T23:28:10.184Z,98767.69
2022-08-26T23:30:38.986Z,98764.00
2022-08-26T23:33:07.789Z,98761.91
2022-08-26T23:35:35.574Z,98757.91
2022-08-26T23:38:05.478Z,98758.09
2022-08-26T23:40:36.933Z,98759.94
2022-08-26T23:43:07.973Z,98753.06
2022-08-26T23:45:36.910Z,98749.66
2022-08-26T23:48:06.851Z,98758.09
2022-08-26T23:50:53.139Z,98766.34
2022-08-26T23:53:23.460Z,98762.66
2022-08-26T23:55:54.085Z,98758.41
2022-08-26T23:58:22.955Z,98758.19
